< < Back
Terminal Aerodrome Forecast


Current Version              Previous Versions:   1  2  3  4  5  6  7  8  9  

Terminal Aerodrome Forecast

165
FTUS42 KGSP 280900 AAB
TAFAND
TAF AMD
KAND 280932Z 2810/2906 29004KT P6SM SCT150
     FM281600 30013G20KT P6SM FEW060 SCT250
     FM290000 31009KT P6SM FEW250
     FM290500 32005KT P6SM FEW250=

Latest METAR

304
SAUS70 KWBC 290200 RRB
MTRAND
METAR KAND 290156Z AUTO 30006KT 10SM CLR 25/14 A2992 RMK AO2 SLP120
T02500139


USA.gov is the U.S. government's official web portal to all federal, state and local government web resources and services.